createdAt,value
2022-08-17T00:01:51.495Z,19.20
2022-08-17T00:04:19.524Z,19.20
2022-08-17T00:06:49.398Z,19.20
2022-08-17T00:09:18.468Z,19.20
2022-08-17T00:12:35.101Z,19.20
2022-08-17T00:14:36.202Z,19.10
2022-08-17T00:17:06.880Z,19.20
2022-08-17T00:19:34.146Z,19.10
2022-08-17T00:22:31.974Z,19.10
2022-08-17T00:24:50.707Z,19.10
2022-08-17T00:27:18.775Z,19.00
2022-08-17T00:29:46.199Z,19.00
2022-08-17T00:33:15.711Z,19.00
2022-08-17T00:35:05.705Z,19.00
2022-08-17T00:37:32.733Z,19.00
2022-08-17T00:39:59.786Z,19.00
2022-08-17T00:42:30.896Z,19.00
2022-08-17T00:44:58.437Z,19.00
2022-08-17T00:47:25.576Z,19.00
2022-08-17T00:49:52.610Z,18.90
2022-08-17T00:52:24.113Z,19.00
2022-08-17T00:54:54.182Z,19.00
2022-08-17T00:57:30.128Z,18.90
2022-08-17T01:00:06.546Z,18.90
2022-08-17T01:02:42.196Z,18.90
2022-08-17T01:05:18.535Z,18.90
2022-08-17T01:07:47.946Z,18.80
2022-08-17T01:10:58.195Z,18.80
2022-08-17T01:13:04.184Z,18.80
2022-08-17T01:15:35.515Z,18.80
2022-08-17T01:18:03.858Z,18.80
2022-08-17T01:20:31.088Z,18.80
2022-08-17T01:23:10.644Z,18.80
2022-08-17T01:25:43.655Z,19.00
2022-08-17T01:28:33.630Z,18.90
2022-08-17T01:31:06.216Z,18.80
2022-08-17T01:33:33.399Z,18.80
2022-08-17T01:36:00.826Z,18.80
2022-08-17T01:38:31.902Z,18.70
2022-08-17T01:41:03.725Z,18.70
2022-08-17T01:43:37.566Z,18.70
2022-08-17T01:46:04.672Z,18.70
2022-08-17T01:48:34.577Z,18.70
2022-08-17T01:51:02.064Z,18.70
2022-08-17T01:53:40.026Z,18.70
2022-08-17T01:56:12.437Z,18.60
2022-08-17T01:58:41.299Z,18.60
2022-08-17T02:01:09.501Z,18.60
2022-08-17T02:03:37.878Z,18.60
2022-08-17T02:06:06.431Z,18.50
2022-08-17T02:09:02.636Z,18.60
2022-08-17T02:11:37.944Z,18.50
2022-08-17T02:14:06.803Z,18.50
2022-08-17T02:16:38.226Z,18.50
2022-08-17T02:19:12.833Z,18.50
2022-08-17T02:21:41.296Z,18.50
2022-08-17T02:24:13.171Z,18.50
2022-08-17T02:26:40.301Z,18.50
2022-08-17T02:29:07.415Z,18.40
2022-08-17T02:31:35.694Z,18.40
2022-08-17T02:34:04.936Z,18.40
2022-08-17T02:36:34.283Z,18.40
2022-08-17T02:39:06.278Z,18.40
2022-08-17T02:41:33.637Z,18.40
2022-08-17T02:44:01.236Z,18.40
2022-08-17T02:46:28.682Z,18.40
2022-08-17T02:48:55.833Z,18.50
2022-08-17T02:51:23.131Z,18.50
2022-08-17T02:53:50.233Z,18.50
2022-08-17T02:56:17.236Z,18.40
2022-08-17T02:58:44.513Z,18.40
2022-08-17T03:01:12.794Z,18.40
2022-08-17T03:03:40.427Z,18.40
2022-08-17T03:06:07.869Z,18.40
2022-08-17T03:08:35.422Z,18.30
2022-08-17T03:11:02.396Z,18.30
2022-08-17T03:13:30.916Z,18.30
2022-08-17T03:15:57.999Z,18.30
2022-08-17T03:18:26.396Z,18.30
2022-08-17T03:20:58.809Z,18.30
2022-08-17T03:23:27.402Z,18.20
2022-08-17T03:25:55.560Z,18.30
2022-08-17T03:28:23.657Z,18.30
2022-08-17T03:30:51.505Z,18.30
2022-08-17T03:33:20.861Z,18.20
2022-08-17T03:35:48.049Z,18.20
2022-08-17T03:38:17.210Z,18.20
2022-08-17T03:40:56.260Z,18.20
2022-08-17T03:43:31.225Z,18.20
2022-08-17T03:46:34.332Z,18.20
2022-08-17T03:49:25.730Z,18.20
2022-08-17T03:52:13.156Z,18.30
2022-08-17T03:54:59.860Z,18.20
2022-08-17T03:57:27.657Z,18.30
2022-08-17T03:59:55.558Z,18.20
2022-08-17T04:02:26.975Z,18.30
2022-08-17T04:04:54.362Z,18.30
2022-08-17T04:07:25.044Z,18.30
2022-08-17T04:09:52.147Z,18.20
2022-08-17T04:12:21.588Z,18.30
2022-08-17T04:14:53.286Z,18.30
2022-08-17T04:17:22.021Z,18.40
2022-08-17T04:19:48.984Z,18.50
2022-08-17T04:22:32.844Z,18.60
2022-08-17T04:25:05.308Z,18.80
2022-08-17T04:27:32.410Z,19.00
2022-08-17T04:29:59.404Z,19.10
2022-08-17T04:33:04.552Z,19.30
2022-08-17T04:35:17.652Z,19.50
2022-08-17T04:37:45.548Z,19.70
2022-08-17T04:40:31.951Z,19.90
2022-08-17T04:43:03.826Z,20.20
2022-08-17T04:45:32.254Z,20.30
2022-08-17T04:48:00.214Z,20.50
2022-08-17T04:50:27.692Z,20.70
2022-08-17T04:52:54.826Z,20.80
2022-08-17T04:55:22.273Z,21.00
2022-08-17T04:57:49.180Z,21.10
2022-08-17T05:00:16.302Z,21.30
2022-08-17T05:02:49.749Z,21.50
2022-08-17T05:05:25.297Z,21.60
2022-08-17T05:07:57.079Z,21.80
2022-08-17T05:10:29.603Z,21.90
2022-08-17T05:13:07.396Z,22.10
2022-08-17T05:15:36.417Z,22.30
2022-08-17T05:18:04.454Z,22.40
2022-08-17T05:20:31.984Z,22.50
2022-08-17T05:23:04.616Z,22.60
2022-08-17T05:25:37.502Z,22.70
2022-08-17T05:28:05.043Z,22.40
2022-08-17T05:30:33.953Z,22.50
2022-08-17T05:33:03.688Z,22.70
2022-08-17T05:35:32.947Z,22.60
2022-08-17T05:38:00.963Z,22.90
2022-08-17T05:40:32.913Z,23.00
2022-08-17T05:43:09.610Z,23.10
2022-08-17T05:45:55.713Z,23.10
2022-08-17T05:48:39.602Z,23.40
2022-08-17T05:51:24.092Z,23.70
2022-08-17T05:54:02.857Z,23.90
2022-08-17T05:56:54.804Z,24.10
2022-08-17T05:59:30.669Z,24.10
2022-08-17T06:02:21.858Z,24.20
2022-08-17T06:05:33.097Z,24.20
2022-08-17T06:08:16.420Z,24.30
2022-08-17T06:10:53.957Z,24.50
2022-08-17T06:13:47.654Z,24.70
2022-08-17T06:16:33.176Z,24.80
2022-08-17T06:19:23.661Z,24.50
2022-08-17T06:21:55.075Z,24.60
2022-08-17T06:24:22.143Z,24.70
2022-08-17T06:26:50.697Z,25.00
2022-08-17T06:29:39.873Z,25.10
2022-08-17T06:32:10.008Z,25.20
2022-08-17T06:34:40.346Z,25.30
2022-08-17T06:37:22.393Z,25.30
2022-08-17T06:40:16.095Z,25.40
2022-08-17T06:43:27.625Z,25.50
2022-08-17T06:46:18.041Z,25.50
2022-08-17T06:49:08.006Z,25.40
2022-08-17T06:51:54.213Z,25.30
2022-08-17T06:54:21.757Z,25.00
2022-08-17T06:56:55.337Z,25.20
2022-08-17T06:59:54.724Z,25.40
2022-08-17T07:02:52.431Z,25.60
2022-08-17T07:05:26.214Z,25.90
2022-08-17T07:08:14.867Z,26.10
2022-08-17T07:10:48.035Z,26.00
2022-08-17T07:13:34.486Z,25.50
2022-08-17T07:16:19.552Z,25.60
2022-08-17T07:18:49.784Z,25.90
2022-08-17T07:21:28.054Z,26.30
2022-08-17T07:24:30.808Z,26.80
2022-08-17T07:27:35.549Z,26.80
2022-08-17T07:30:11.890Z,26.50
2022-08-17T07:32:45.376Z,26.50
2022-08-17T07:35:37.774Z,26.70
2022-08-17T07:38:25.259Z,26.90
2022-08-17T07:41:02.938Z,27.20
2022-08-17T07:43:35.869Z,27.20
2022-08-17T07:46:50.850Z,27.20
2022-08-17T07:49:22.744Z,27.30
2022-08-17T07:51:50.553Z,27.10
2022-08-17T07:54:26.367Z,27.30
2022-08-17T07:57:00.552Z,27.30
2022-08-17T07:59:34.449Z,27.60
2022-08-17T08:02:16.322Z,27.90
2022-08-17T08:05:03.829Z,28.00
2022-08-17T08:07:50.596Z,27.90
2022-08-17T08:10:42.810Z,28.30
2022-08-17T08:13:22.307Z,28.30
2022-08-17T08:15:55.866Z,28.40
2022-08-17T08:18:54.368Z,28.30
2022-08-17T08:21:18.552Z,28.20
2022-08-17T08:23:57.507Z,28.10
2022-08-17T08:26:47.124Z,28.20
2022-08-17T08:29:38.023Z,28.40
2022-08-17T08:32:57.304Z,28.30
2022-08-17T08:35:37.357Z,28.80
2022-08-17T08:38:39.033Z,29.00
2022-08-17T08:41:24.267Z,29.00
2022-08-17T08:44:59.702Z,29.20
2022-08-17T08:47:36.910Z,29.40
2022-08-17T08:50:40.435Z,29.30
2022-08-17T08:53:11.516Z,29.30
2022-08-17T08:56:10.311Z,29.40
2022-08-17T08:58:50.551Z,29.40
2022-08-17T09:01:42.544Z,29.50
2022-08-17T09:05:09.952Z,29.50
2022-08-17T09:07:50.685Z,29.40
2022-08-17T09:10:29.961Z,29.60
2022-08-17T09:13:14.587Z,29.70
2022-08-17T09:15:59.234Z,29.40
2022-08-17T09:19:02.955Z,29.40
2022-08-17T09:21:21.064Z,29.60
2022-08-17T09:24:04.978Z,29.60
2022-08-17T09:26:31.823Z,29.80
2022-08-17T09:29:03.356Z,29.80
2022-08-17T09:31:52.480Z,30.00
2022-08-17T09:34:43.600Z,29.80
2022-08-17T09:37:18.327Z,29.90
2022-08-17T09:40:08.648Z,29.90
2022-08-17T09:42:44.720Z,30.10
2022-08-17T09:45:50.862Z,30.10
2022-08-17T09:48:37.416Z,30.10
2022-08-17T09:51:10.468Z,30.10
2022-08-17T09:53:38.832Z,30.20
2022-08-17T09:56:26.883Z,30.10
2022-08-17T09:59:29.531Z,30.00
2022-08-17T10:02:41.374Z,30.00
2022-08-17T10:05:22.844Z,29.90
2022-08-17T10:08:08.763Z,29.70
2022-08-17T10:10:56.359Z,29.70
2022-08-17T10:13:41.576Z,29.60
2022-08-17T10:16:38.432Z,29.70
2022-08-17T10:19:24.208Z,29.80
2022-08-17T10:22:32.713Z,29.90
2022-08-17T10:25:24.857Z,30.00
2022-08-17T10:28:10.704Z,30.10
2022-08-17T10:31:16.576Z,30.00
2022-08-17T10:34:13.301Z,30.10
2022-08-17T10:37:11.087Z,30.00
2022-08-17T10:40:02.715Z,30.10
2022-08-17T10:42:50.337Z,30.20
2022-08-17T10:45:26.789Z,30.40
2022-08-17T10:48:21.261Z,30.50
2022-08-17T10:50:59.879Z,30.50
2022-08-17T10:53:32.714Z,30.40
2022-08-17T10:56:14.704Z,30.40
2022-08-17T10:58:59.584Z,30.30
2022-08-17T11:01:32.751Z,30.20
2022-08-17T11:04:21.697Z,30.40
2022-08-17T11:07:06.886Z,30.50
2022-08-17T11:10:01.352Z,30.60
2022-08-17T11:12:45.180Z,30.50
2022-08-17T11:15:36.972Z,30.80
2022-08-17T11:18:37.179Z,30.80
2022-08-17T11:21:20.537Z,30.90
2022-08-17T11:24:06.142Z,31.00
2022-08-17T11:26:36.637Z,31.00
2022-08-17T11:29:10.555Z,30.90
2022-08-17T11:31:41.812Z,30.80
2022-08-17T11:34:19.808Z,30.70
2022-08-17T11:37:05.399Z,30.80
2022-08-17T11:40:04.939Z,31.00
2022-08-17T11:43:04.374Z,30.90
2022-08-17T11:46:02.163Z,30.90
2022-08-17T11:49:12.823Z,31.20
2022-08-17T11:52:07.282Z,31.30
2022-08-17T11:54:45.364Z,31.20
2022-08-17T11:57:27.730Z,31.10
2022-08-17T12:00:05.495Z,31.10
2022-08-17T12:02:39.003Z,31.20
2022-08-17T12:05:14.538Z,31.30
2022-08-17T12:07:53.155Z,31.40
2022-08-17T12:10:30.659Z,31.50
2022-08-17T12:12:59.606Z,31.60
2022-08-17T12:15:30.637Z,31.60
2022-08-17T12:17:58.725Z,31.50
2022-08-17T12:20:37.305Z,31.60
2022-08-17T12:23:26.598Z,31.60
2022-08-17T12:26:04.821Z,31.80
2022-08-17T12:28:37.019Z,31.60
2022-08-17T12:31:13.334Z,31.40
2022-08-17T12:33:44.672Z,31.70
2022-08-17T12:36:15.367Z,31.60
2022-08-17T12:38:51.315Z,31.60
2022-08-17T12:41:39.032Z,31.70
2022-08-17T12:44:12.553Z,31.90
2022-08-17T12:47:07.808Z,31.80
2022-08-17T12:49:37.946Z,31.90
2022-08-17T12:52:07.913Z,31.70
2022-08-17T12:54:43.327Z,31.80
2022-08-17T12:57:17.697Z,31.90
2022-08-17T12:59:59.013Z,32.10
2022-08-17T13:02:39.260Z,32.10
2022-08-17T13:05:08.866Z,32.00
2022-08-17T13:07:44.869Z,32.00
2022-08-17T13:10:21.599Z,32.00
2022-08-17T13:12:51.082Z,31.90
2022-08-17T13:15:35.990Z,31.90
2022-08-17T13:18:07.742Z,31.90
2022-08-17T13:20:35.356Z,32.00
2022-08-17T13:23:12.030Z,31.90
2022-08-17T13:25:39.730Z,31.90
2022-08-17T13:28:06.670Z,32.00
2022-08-17T13:30:33.920Z,32.30
2022-08-17T13:33:04.072Z,32.20
2022-08-17T13:35:47.068Z,32.40
2022-08-17T13:38:37.627Z,32.50
2022-08-17T13:41:06.454Z,32.40
2022-08-17T13:43:42.785Z,32.40
2022-08-17T13:46:17.538Z,32.40
2022-08-17T13:48:44.754Z,32.50
2022-08-17T13:51:17.215Z,32.50
2022-08-17T13:53:44.090Z,32.50
2022-08-17T13:56:33.404Z,32.50
2022-08-17T13:59:14.705Z,32.30
2022-08-17T14:01:48.491Z,32.40
2022-08-17T14:04:24.418Z,32.40
2022-08-17T14:07:02.453Z,32.50
2022-08-17T14:09:37.548Z,32.50
2022-08-17T14:12:09.760Z,32.50
2022-08-17T14:14:37.554Z,32.50
2022-08-17T14:17:05.080Z,32.50
2022-08-17T14:19:36.160Z,32.40
2022-08-17T14:22:05.006Z,32.50
2022-08-17T14:24:35.380Z,32.90
2022-08-17T14:27:04.712Z,32.90
2022-08-17T14:29:34.462Z,32.70
2022-08-17T14:32:20.678Z,32.80
2022-08-17T14:34:49.714Z,32.70
2022-08-17T14:37:18.802Z,32.70
2022-08-17T14:39:45.996Z,32.90
2022-08-17T14:42:13.159Z,32.90
2022-08-17T14:44:40.444Z,33.60
2022-08-17T14:47:13.913Z,35.20
2022-08-17T14:49:40.912Z,37.10
2022-08-17T14:52:12.308Z,38.90
2022-08-17T14:54:43.798Z,40.00
2022-08-17T14:57:24.670Z,41.90
2022-08-17T14:59:59.897Z,42.70
2022-08-17T15:02:29.744Z,43.30
2022-08-17T15:05:02.357Z,43.50
2022-08-17T15:07:30.715Z,42.60
2022-08-17T15:10:00.714Z,42.00
2022-08-17T15:12:32.701Z,42.30
2022-08-17T15:15:01.358Z,41.70
2022-08-17T15:17:43.894Z,41.60
2022-08-17T15:20:21.976Z,40.90
2022-08-17T15:22:55.888Z,40.30
2022-08-17T15:25:25.283Z,38.30
2022-08-17T15:27:52.643Z,36.80
2022-08-17T15:30:20.520Z,35.70
2022-08-17T15:32:54.398Z,34.70
2022-08-17T15:35:29.072Z,34.10
2022-08-17T15:37:58.669Z,33.70
2022-08-17T15:40:25.645Z,33.40
2022-08-17T15:42:53.036Z,33.30
2022-08-17T15:45:24.973Z,33.20
2022-08-17T15:47:52.954Z,33.20
2022-08-17T15:50:20.150Z,33.10
2022-08-17T15:52:47.703Z,33.10
2022-08-17T15:55:15.686Z,33.10
2022-08-17T15:57:42.905Z,33.00
2022-08-17T16:00:10.602Z,32.90
2022-08-17T16:03:45.086Z,32.90
2022-08-17T16:05:30.136Z,32.90
2022-08-17T16:07:59.742Z,32.70
2022-08-17T16:10:35.303Z,32.70
2022-08-17T16:13:04.471Z,32.80
2022-08-17T16:15:32.217Z,32.70
2022-08-17T16:17:59.984Z,32.80
2022-08-17T16:20:27.213Z,32.70
2022-08-17T16:22:54.918Z,32.50
2022-08-17T16:25:51.975Z,32.40
2022-08-17T16:28:18.263Z,32.40
2022-08-17T16:30:45.712Z,32.30
2022-08-17T16:33:13.773Z,32.30
2022-08-17T16:35:42.236Z,32.20
2022-08-17T16:38:09.685Z,32.20
2022-08-17T16:40:38.209Z,32.00
2022-08-17T16:43:10.639Z,31.50
2022-08-17T16:45:40.689Z,30.90
2022-08-17T16:48:08.670Z,30.50
2022-08-17T16:50:36.262Z,30.30
2022-08-17T16:53:10.681Z,30.10
2022-08-17T16:55:38.573Z,30.00
2022-08-17T16:58:06.952Z,29.80
2022-08-17T17:00:34.772Z,29.70
2022-08-17T17:03:19.203Z,29.70
2022-08-17T17:05:57.993Z,29.60
2022-08-17T17:08:33.744Z,29.60
2022-08-17T17:11:15.910Z,29.50
2022-08-17T17:14:04.068Z,29.40
2022-08-17T17:16:45.865Z,29.40
2022-08-17T17:19:35.017Z,29.20
2022-08-17T17:22:20.722Z,29.10
2022-08-17T17:25:08.007Z,28.90
2022-08-17T17:27:59.910Z,28.80
2022-08-17T17:31:04.041Z,28.60
2022-08-17T17:33:42.165Z,28.50
2022-08-17T17:36:47.235Z,28.40
2022-08-17T17:39:43.782Z,28.30
2022-08-17T17:42:19.949Z,28.20
2022-08-17T17:45:00.107Z,28.10
2022-08-17T17:47:28.250Z,27.90
2022-08-17T17:49:55.229Z,27.80
2022-08-17T17:52:36.493Z,27.60
2022-08-17T17:55:13.287Z,27.40
2022-08-17T17:57:44.902Z,27.20
2022-08-17T18:00:20.767Z,27.10
2022-08-17T18:02:51.864Z,27.00
2022-08-17T18:05:37.368Z,26.80
2022-08-17T18:08:19.255Z,26.80
2022-08-17T18:11:07.797Z,26.60
2022-08-17T18:13:40.619Z,26.60
2022-08-17T18:16:13.847Z,26.40
2022-08-17T18:18:44.910Z,26.40
2022-08-17T18:21:19.404Z,26.30
2022-08-17T18:23:48.865Z,26.20
2022-08-17T18:26:34.440Z,26.10
2022-08-17T18:29:02.421Z,26.00
2022-08-17T18:31:29.511Z,25.90
2022-08-17T18:34:46.060Z,25.80
2022-08-17T18:37:10.023Z,25.70
2022-08-17T18:39:38.440Z,25.60
2022-08-17T18:42:24.944Z,25.60
2022-08-17T18:44:55.077Z,25.60
2022-08-17T18:47:25.644Z,25.50
2022-08-17T18:50:20.092Z,25.50
2022-08-17T18:52:51.499Z,25.40
2022-08-17T18:55:31.550Z,25.40
2022-08-17T18:58:20.087Z,25.30
2022-08-17T19:00:49.331Z,25.20
2022-08-17T19:03:16.276Z,25.20
2022-08-17T19:05:46.241Z,25.10
2022-08-17T19:08:22.601Z,25.10
2022-08-17T19:10:58.100Z,25.00
2022-08-17T19:13:42.949Z,25.00
2022-08-17T19:16:25.397Z,24.90
2022-08-17T19:19:11.126Z,24.80
2022-08-17T19:21:41.809Z,24.70
2022-08-17T19:24:21.010Z,24.60
2022-08-17T19:27:07.889Z,24.60
2022-08-17T19:29:56.443Z,24.50
2022-08-17T19:32:30.384Z,24.40
2022-08-17T19:34:58.076Z,24.40
2022-08-17T19:37:33.635Z,24.30
2022-08-17T19:40:52.250Z,24.30
2022-08-17T19:43:47.970Z,24.20
2022-08-17T19:47:06.164Z,24.10
2022-08-17T19:49:46.730Z,24.10
2022-08-17T19:52:47.991Z,24.10
2022-08-17T19:55:20.254Z,24.00
2022-08-17T19:58:11.239Z,24.00
2022-08-17T20:00:50.534Z,23.90
2022-08-17T20:03:27.083Z,23.80
2022-08-17T20:06:12.522Z,23.80
2022-08-17T20:09:33.502Z,23.80
2022-08-17T20:12:10.346Z,23.70
2022-08-17T20:14:55.081Z,23.60
2022-08-17T20:17:29.547Z,23.60
2022-08-17T20:20:29.813Z,23.60
2022-08-17T20:23:05.222Z,23.50
2022-08-17T20:26:17.164Z,23.50
2022-08-17T20:29:40.191Z,23.50
2022-08-17T20:32:18.977Z,23.40
2022-08-17T20:34:47.645Z,23.30
2022-08-17T20:37:14.637Z,23.20
2022-08-17T20:40:09.659Z,23.20
2022-08-17T20:42:37.320Z,23.20
2022-08-17T20:45:26.264Z,23.20
2022-08-17T20:48:26.059Z,23.10
2022-08-17T20:50:56.119Z,23.10
2022-08-17T20:53:47.676Z,23.10
2022-08-17T20:56:46.691Z,23.00
2022-08-17T20:59:30.778Z,23.00
2022-08-17T21:02:18.169Z,23.00
2022-08-17T21:04:52.907Z,22.90
2022-08-17T21:07:29.667Z,22.90
2022-08-17T21:10:19.549Z,22.80
2022-08-17T21:13:07.401Z,22.80
2022-08-17T21:15:42.089Z,22.80
2022-08-17T21:18:38.771Z,22.80
2022-08-17T21:21:37.647Z,22.70
2022-08-17T21:24:23.423Z,22.70
2022-08-17T21:26:51.122Z,22.70
2022-08-17T21:29:30.906Z,22.60
2022-08-17T21:32:00.622Z,22.60
2022-08-17T21:34:37.926Z,22.60
2022-08-17T21:37:23.588Z,22.60
2022-08-17T21:40:18.116Z,22.50
2022-08-17T21:42:50.712Z,22.50
2022-08-17T21:45:24.368Z,22.50
2022-08-17T21:48:06.947Z,22.40
2022-08-17T21:50:34.419Z,22.40
2022-08-17T21:53:03.198Z,22.40
2022-08-17T21:55:32.651Z,22.30
2022-08-17T21:58:14.164Z,22.30
2022-08-17T22:00:44.943Z,22.20
2022-08-17T22:03:24.174Z,22.20
2022-08-17T22:05:51.637Z,22.10
2022-08-17T22:08:24.471Z,22.10
2022-08-17T22:10:59.912Z,22.20
2022-08-17T22:13:29.696Z,22.20
2022-08-17T22:16:27.763Z,22.10
2022-08-17T22:18:57.715Z,22.10
2022-08-17T22:21:25.400Z,22.10
2022-08-17T22:24:04.619Z,22.00
2022-08-17T22:27:00.319Z,22.00
2022-08-17T22:29:59.950Z,22.00
2022-08-17T22:32:46.750Z,22.00
2022-08-17T22:35:34.852Z,22.00
2022-08-17T22:38:20.182Z,21.90
2022-08-17T22:40:52.584Z,21.80
2022-08-17T22:43:26.334Z,21.80
2022-08-17T22:45:55.909Z,21.80
2022-08-17T22:48:27.472Z,21.70
2022-08-17T22:51:23.196Z,21.70
2022-08-17T22:54:12.126Z,21.80
2022-08-17T22:57:25.981Z,21.80
2022-08-17T22:59:55.975Z,21.70
2022-08-17T23:02:27.484Z,21.70
2022-08-17T23:05:13.069Z,21.70
2022-08-17T23:07:43.714Z,21.70
2022-08-17T23:10:13.354Z,21.70
2022-08-17T23:12:40.398Z,21.70
2022-08-17T23:15:15.936Z,21.70
2022-08-17T23:17:45.270Z,21.70
2022-08-17T23:20:15.172Z,21.60
2022-08-17T23:22:52.544Z,21.60
2022-08-17T23:25:29.385Z,21.60
2022-08-17T23:27:58.621Z,21.60
2022-08-17T23:30:28.581Z,21.50
2022-08-17T23:32:56.615Z,21.50
2022-08-17T23:35:39.384Z,21.40
2022-08-17T23:38:12.399Z,21.40
2022-08-17T23:40:40.098Z,21.40
2022-08-17T23:43:17.434Z,21.40
2022-08-17T23:45:53.442Z,21.40
2022-08-17T23:48:34.130Z,21.30
2022-08-17T23:51:17.450Z,21.40
2022-08-17T23:53:48.037Z,21.40
2022-08-17T23:56:15.465Z,21.40
2022-08-17T23:58:44.863Z,21.30
